Noblesville, IN (46060)

4:05 PM EDT on September 03, 2015 (GMT -0400)
Downtown Noblesville | | Change Station
CLOSE
Current Station
Personal Weather Station
Location: Noblesville, IN
Elevation: 774 ft
Nearby Weather Stations

Elev 774 ft 40.04 °N, 86.00 °W | Updated 9 seconds ago

Partly Cloudy
Partly Cloudy
90.5 °F
Feels Like 92 °F
N
4.2
Wind Variable Wind from SW
Gusts 4.9 mph

Today
High -- | Low -- °F
--% Chance of Precip.
Yesterday
High -- | Low -- °F
Precip. -- in
7:13 AM 8:12 PM
Waning Gibbous, 67% visible
Pressure 29.97 in
Visibility 10.0 miles
Clouds Scattered Clouds 5000 ft
Scattered Clouds 8000 ft
Heat Index 92 °F
Dew Point 64 °F
Humidity 42%
Rainfall 0.00 in
Snow Depth Not available.
UV 3.0 out of 12
Pollen 10.60 out of 12
Air Quality Not available.
Flu Activity Not available.
METAR KTYQ 031955Z AUTO 23006KT 10SM SCT050 SCT080 32/18 A2997 RMK AO2 T03220179
Pressure 29.97 in
Visibility 10.0 miles
Clouds Scattered Clouds 5000 ft
Scattered Clouds 8000 ft
Heat Index 92 °F
Dew Point 64 °F
Humidity 42%
Rainfall 0.00 in
Snow Depth Not available.
UV 3.0 out of 12
Pollen 10.60 out of 12
Air Quality Not available.
Flu Activity Not available.
METAR KTYQ 031955Z AUTO 23006KT 10SM SCT050 SCT080 32/18 A2997 RMK AO2 T03220179

10-Day Weather Forecast

×

Almanac

Astronomy

Sep. 03, 2015 Rise Set
Actual Time
Civil Twilight
Nautical Twilight
Astronomical Twilight
Moon
Length of Visible Light
Length of Day
Tomorrow will be .
, % of the Moon is Illuminated

Today's Extremes

State Highs State Lows

Community

WunderPhotos

Upload Photos

1,852,019 photos uploaded!

WunderBlogs® & News

Nearby

Air Quality

  Air Quality AQ Index Pollutant
Not available.

Snow Depth

Station Depth Elevation

Earthquake Activity

City Distance Mag. Time & Date
Minimum magnitude displayed is 2.5.

Coastal Water Temperatures

Place Temperature

Stations

Nearby Weather Stations

Station Location Temp. Windchill Dew Point Humidity Wind Precip. Elev Updated Type